createdAt,value
2018-05-29T00:01:46.167Z,78.70
2018-05-29T00:04:13.957Z,78.80
2018-05-29T00:06:41.674Z,78.90
2018-05-29T00:09:10.144Z,78.90
2018-05-29T00:11:38.657Z,79.00
2018-05-29T00:14:06.440Z,79.00
2018-05-29T00:16:34.180Z,79.10
2018-05-29T00:19:01.939Z,79.30
2018-05-29T00:21:29.652Z,79.20
2018-05-29T00:23:57.424Z,79.30
2018-05-29T00:26:25.136Z,79.30
2018-05-29T00:28:52.860Z,79.40
2018-05-29T00:31:20.579Z,79.50
2018-05-29T00:33:48.355Z,79.70
2018-05-29T00:36:16.076Z,80.30
2018-05-29T00:38:43.816Z,80.60
2018-05-29T00:41:11.555Z,81.00
2018-05-29T00:43:39.289Z,81.60
2018-05-29T00:46:07.060Z,82.00
2018-05-29T00:48:34.784Z,82.20
2018-05-29T00:51:03.278Z,82.50
2018-05-29T00:53:31.013Z,82.50
2018-05-29T00:55:58.724Z,82.60
2018-05-29T00:58:26.477Z,82.80
2018-05-29T01:00:54.218Z,83.00
2018-05-29T01:03:22.705Z,82.90
2018-05-29T01:05:51.197Z,82.40
2018-05-29T01:08:18.998Z,82.00
2018-05-29T01:10:46.795Z,82.10
2018-05-29T01:13:14.518Z,82.00
2018-05-29T01:15:42.276Z,81.80
2018-05-29T01:18:09.990Z,81.80
2018-05-29T01:20:38.511Z,82.50
2018-05-29T01:23:06.662Z,81.80
2018-05-29T01:25:35.164Z,81.90
2018-05-29T01:28:02.877Z,81.90
2018-05-29T01:30:30.616Z,81.90
2018-05-29T01:32:58.321Z,81.90
2018-05-29T01:35:26.832Z,82.10
2018-05-29T01:37:54.579Z,82.10
2018-05-29T01:40:22.328Z,81.90
2018-05-29T01:42:50.865Z,82.00
2018-05-29T01:45:18.644Z,82.00
2018-05-29T01:47:46.400Z,82.10
2018-05-29T01:50:14.105Z,82.30
2018-05-29T01:52:42.613Z,82.40
2018-05-29T01:55:10.333Z,82.30
2018-05-29T01:57:38.096Z,82.60
2018-05-29T02:00:05.936Z,82.90
2018-05-29T02:02:33.645Z,83.10
2018-05-29T02:05:02.128Z,83.50
2018-05-29T02:07:30.640Z,83.60
2018-05-29T02:09:58.373Z,83.60
2018-05-29T02:12:26.864Z,85.00
2018-05-29T02:14:54.589Z,85.00
2018-05-29T02:17:22.328Z,85.80
2018-05-29T02:19:50.040Z,86.40
2018-05-29T02:22:18.559Z,87.30
2018-05-29T02:24:46.313Z,87.30
2018-05-29T02:27:14.077Z,87.40
2018-05-29T02:29:41.847Z,87.60
2018-05-29T02:32:09.597Z,87.80
2018-05-29T02:34:37.326Z,87.60
2018-05-29T02:37:05.078Z,87.80
2018-05-29T02:39:32.791Z,87.40
2018-05-29T02:42:00.517Z,86.80
2018-05-29T02:44:28.264Z,87.30
2018-05-29T02:46:56.009Z,86.60
2018-05-29T02:49:23.725Z,86.60
2018-05-29T02:51:51.497Z,86.60
2018-05-29T02:54:19.249Z,86.50
2018-05-29T02:56:47.716Z,86.80
2018-05-29T02:59:15.490Z,86.80
2018-05-29T03:01:43.953Z,86.70
2018-05-29T03:04:11.720Z,86.50
2018-05-29T03:06:39.486Z,86.60
2018-05-29T03:09:07.249Z,86.60
2018-05-29T03:11:34.971Z,86.80
2018-05-29T03:14:02.747Z,86.70
2018-05-29T03:16:30.465Z,86.50
2018-05-29T03:18:58.190Z,86.60
2018-05-29T03:21:25.934Z,86.80
2018-05-29T03:23:53.683Z,86.90
2018-05-29T03:26:21.404Z,87.30
2018-05-29T03:28:49.913Z,88.00
2018-05-29T03:31:17.682Z,88.00
2018-05-29T03:33:45.400Z,88.20
2018-05-29T03:36:13.140Z,88.40
2018-05-29T03:38:40.929Z,88.60
2018-05-29T03:41:08.641Z,88.70
2018-05-29T03:43:36.422Z,88.80
2018-05-29T03:46:04.156Z,89.10
2018-05-29T03:48:31.896Z,89.20
2018-05-29T03:51:00.397Z,89.50
2018-05-29T03:53:28.196Z,89.50
2018-05-29T03:55:56.019Z,89.60
2018-05-29T03:58:23.777Z,89.70
2018-05-29T04:00:52.294Z,90.00
2018-05-29T04:03:19.997Z,90.00
2018-05-29T04:05:47.731Z,90.10
2018-05-29T04:08:15.445Z,90.10
2018-05-29T04:10:43.940Z,90.20
2018-05-29T04:13:11.681Z,89.80
2018-05-29T04:15:40.155Z,89.50
2018-05-29T04:18:08.644Z,89.60
2018-05-29T04:20:37.151Z,89.70
2018-05-29T04:23:04.876Z,89.70
2018-05-29T04:25:32.625Z,89.80
2018-05-29T04:28:00.363Z,89.90
2018-05-29T04:30:28.831Z,90.10
2018-05-29T04:32:56.585Z,90.10
2018-05-29T04:35:24.390Z,90.30
2018-05-29T04:37:52.109Z,90.40
2018-05-29T04:40:19.825Z,90.60
2018-05-29T04:42:47.580Z,90.60
2018-05-29T04:45:15.320Z,90.50
2018-05-29T04:47:43.045Z,90.50
2018-05-29T04:50:11.548Z,90.70
2018-05-29T04:52:39.265Z,90.70
2018-05-29T04:55:06.985Z,90.80
2018-05-29T04:57:34.754Z,90.80
2018-05-29T05:00:02.542Z,91.00
2018-05-29T05:02:30.299Z,91.20
2018-05-29T05:04:58.013Z,91.40
2018-05-29T05:07:26.555Z,91.60
2018-05-29T05:09:54.285Z,91.60
2018-05-29T05:12:22.024Z,91.60
2018-05-29T05:14:50.493Z,91.80
2018-05-29T05:17:19.027Z,92.00
2018-05-29T05:19:46.776Z,91.90
2018-05-29T05:22:14.488Z,91.90
2018-05-29T05:24:42.201Z,92.00
2018-05-29T05:27:09.952Z,92.00
2018-05-29T05:29:37.652Z,91.90
2018-05-29T05:32:05.393Z,92.00
2018-05-29T05:34:33.120Z,92.00
2018-05-29T05:37:01.605Z,92.20
2018-05-29T05:39:30.497Z,92.30
2018-05-29T05:41:59.020Z,92.50
2018-05-29T05:44:26.783Z,92.50
2018-05-29T05:46:54.540Z,92.70
2018-05-29T05:49:22.244Z,93.20
2018-05-29T05:51:49.960Z,93.00
2018-05-29T05:54:17.709Z,93.40
2018-05-29T05:56:45.490Z,93.20
2018-05-29T05:59:13.206Z,93.10
2018-05-29T06:01:41.711Z,93.00
2018-05-29T06:04:09.428Z,92.90
2018-05-29T06:06:37.133Z,92.90
2018-05-29T06:09:05.724Z,93.40
2018-05-29T06:11:33.452Z,93.40
2018-05-29T06:14:04.381Z,93.50
2018-05-29T06:16:33.785Z,93.50
2018-05-29T06:19:02.314Z,93.40
2018-05-29T06:21:30.048Z,93.40
2018-05-29T06:23:58.543Z,93.30
2018-05-29T06:26:27.065Z,93.30
2018-05-29T06:28:54.780Z,93.30
2018-05-29T06:31:23.261Z,93.30
2018-05-29T06:33:51.764Z,93.20
2018-05-29T06:36:19.484Z,93.20
2018-05-29T06:38:47.277Z,93.20
2018-05-29T06:41:14.990Z,93.20
2018-05-29T06:43:42.692Z,93.10
2018-05-29T06:46:11.192Z,93.00
2018-05-29T06:48:38.924Z,93.00
2018-05-29T06:51:06.680Z,93.00
2018-05-29T06:53:34.423Z,92.90
2018-05-29T06:56:02.672Z,93.00
2018-05-29T06:58:30.437Z,93.00
2018-05-29T07:00:58.935Z,92.90
2018-05-29T07:03:26.645Z,92.90
2018-05-29T07:05:55.128Z,92.30
2018-05-29T07:08:24.388Z,91.60
2018-05-29T07:10:52.104Z,91.70
2018-05-29T07:13:20.585Z,91.20
2018-05-29T07:15:49.090Z,90.80
2018-05-29T07:18:17.604Z,91.00
2018-05-29T07:20:45.334Z,91.00
2018-05-29T07:23:13.080Z,91.20
2018-05-29T07:25:40.816Z,91.00
2018-05-29T07:28:08.533Z,90.40
2018-05-29T07:30:36.348Z,90.30
2018-05-29T07:33:04.824Z,89.80
2018-05-29T07:35:32.588Z,89.80
2018-05-29T07:38:01.102Z,89.40
2018-05-29T07:40:28.829Z,89.40
2018-05-29T07:42:56.578Z,88.80
2018-05-29T07:45:24.318Z,88.50
2018-05-29T07:47:52.030Z,88.40
2018-05-29T07:50:20.525Z,88.70
2018-05-29T07:52:48.290Z,88.60
2018-05-29T07:55:16.017Z,88.20
2018-05-29T07:57:43.728Z,88.20
2018-05-29T08:00:11.470Z,88.20
2018-05-29T08:02:39.948Z,89.50
2018-05-29T08:05:08.473Z,89.60
2018-05-29T08:07:36.224Z,89.60
2018-05-29T08:10:04.028Z,89.90
2018-05-29T08:12:31.733Z,90.10
2018-05-29T08:14:59.468Z,89.60
2018-05-29T08:17:27.212Z,90.30
2018-05-29T08:19:54.920Z,90.30
2018-05-29T08:22:22.656Z,90.60
2018-05-29T08:24:50.425Z,90.50
2018-05-29T08:27:18.425Z,90.50
2018-05-29T08:29:46.156Z,90.40
2018-05-29T08:32:13.859Z,90.50
2018-05-29T08:34:41.587Z,90.70
2018-05-29T08:37:10.072Z,91.00
2018-05-29T08:39:38.628Z,91.40
2018-05-29T08:42:06.343Z,91.40
2018-05-29T08:44:34.104Z,91.00
2018-05-29T08:47:01.847Z,90.80
2018-05-29T08:49:30.340Z,90.30
2018-05-29T08:52:00.533Z,89.40
2018-05-29T08:54:28.287Z,89.40
2018-05-29T08:56:55.993Z,89.60
2018-05-29T08:59:23.755Z,90.00
2018-05-29T09:01:51.495Z,89.10
2018-05-29T09:04:20.053Z,90.10
2018-05-29T09:06:50.117Z,90.60
2018-05-29T09:09:17.847Z,90.60
2018-05-29T09:11:45.574Z,90.40
2018-05-29T09:14:13.364Z,91.20
2018-05-29T09:16:41.112Z,92.00
2018-05-29T09:19:08.820Z,92.30
2018-05-29T09:21:37.330Z,92.20
2018-05-29T09:24:05.087Z,92.20
2018-05-29T09:26:32.876Z,92.60
2018-05-29T09:29:00.948Z,92.30
2018-05-29T09:31:28.681Z,92.60
2018-05-29T09:33:56.413Z,93.10
2018-05-29T09:36:24.178Z,93.10
2018-05-29T09:38:51.888Z,93.10
2018-05-29T09:41:19.610Z,93.20
2018-05-29T09:43:48.122Z,93.10
2018-05-29T09:46:15.911Z,93.00
2018-05-29T09:48:43.652Z,92.40
2018-05-29T09:51:12.221Z,92.50
2018-05-29T09:53:40.772Z,92.30
2018-05-29T09:56:08.519Z,92.60
2018-05-29T09:58:36.366Z,93.00
2018-05-29T10:01:04.158Z,93.00
2018-05-29T10:03:31.888Z,93.10
2018-05-29T10:05:59.630Z,92.60
2018-05-29T10:08:27.405Z,92.30
2018-05-29T10:10:55.159Z,92.40
2018-05-29T10:13:22.888Z,92.10
2018-05-29T10:15:50.613Z,92.10
2018-05-29T10:18:18.335Z,91.70
2018-05-29T10:20:46.876Z,91.60
2018-05-29T10:23:14.627Z,91.60
2018-05-29T10:25:42.335Z,91.50
2018-05-29T10:28:10.829Z,91.20
2018-05-29T10:30:39.309Z,91.00
2018-05-29T10:33:07.792Z,90.60
2018-05-29T10:35:36.352Z,91.10
2018-05-29T10:38:04.097Z,91.10
2018-05-29T10:40:31.809Z,91.10
2018-05-29T10:42:59.552Z,91.20
2018-05-29T10:45:28.113Z,91.10
2018-05-29T10:47:55.919Z,91.10
2018-05-29T10:50:23.668Z,90.90
2018-05-29T10:52:52.155Z,90.50
2018-05-29T10:55:20.667Z,90.30
2018-05-29T10:57:49.166Z,89.50
2018-05-29T11:00:16.921Z,89.50
2018-05-29T11:02:44.692Z,89.40
2018-05-29T11:05:12.404Z,90.20
2018-05-29T11:07:40.918Z,89.10
2018-05-29T11:10:08.669Z,89.10
2018-05-29T11:12:36.441Z,90.10
2018-05-29T11:15:05.954Z,89.40
2018-05-29T11:17:34.485Z,90.40
2018-05-29T11:20:02.277Z,90.40
2018-05-29T11:22:30.037Z,88.90
2018-05-29T11:24:57.812Z,86.90
2018-05-29T11:27:25.588Z,85.60
2018-05-29T11:29:54.073Z,83.60
2018-05-29T11:32:21.827Z,83.70
2018-05-29T11:34:49.586Z,82.80
2018-05-29T11:37:17.314Z,82.70
2018-05-29T11:39:45.060Z,82.00
2018-05-29T11:42:12.779Z,82.50
2018-05-29T11:44:40.545Z,81.20
2018-05-29T11:47:08.381Z,81.20
2018-05-29T11:49:36.896Z,81.00
2018-05-29T11:52:04.689Z,80.90
2018-05-29T11:54:32.464Z,80.90
2018-05-29T11:57:00.482Z,83.40
2018-05-29T11:59:28.212Z,83.10
2018-05-29T12:01:56.036Z,82.70
2018-05-29T12:04:23.755Z,81.10
2018-05-29T12:06:52.272Z,81.30
2018-05-29T12:09:20.019Z,81.30
2018-05-29T12:11:47.795Z,80.40
2018-05-29T12:14:16.305Z,78.50
2018-05-29T12:16:44.043Z,78.50
2018-05-29T12:19:11.813Z,78.40
2018-05-29T12:21:39.516Z,79.10
2018-05-29T12:24:07.464Z,79.50
2018-05-29T12:26:35.232Z,79.80
2018-05-29T12:29:03.021Z,79.90
2018-05-29T12:31:31.536Z,81.10
2018-05-29T12:33:59.268Z,81.10
2018-05-29T12:36:27.753Z,81.60
2018-05-29T12:38:56.264Z,82.40
2018-05-29T12:41:24.006Z,82.40
2018-05-29T12:43:52.500Z,81.90
2018-05-29T12:46:20.345Z,81.90
2018-05-29T12:48:48.037Z,81.40
2018-05-29T12:51:15.801Z,80.70
2018-05-29T12:53:43.533Z,80.70
2018-05-29T12:56:12.025Z,80.00
2018-05-29T12:58:40.485Z,78.40
2018-05-29T13:01:08.213Z,78.40
2018-05-29T13:03:36.053Z,78.20
2018-05-29T13:06:03.781Z,77.10
2018-05-29T13:08:32.298Z,77.80
2018-05-29T13:11:00.077Z,77.80
2018-05-29T13:13:27.819Z,78.20
2018-05-29T13:15:55.584Z,78.90
2018-05-29T13:18:23.292Z,78.20
2018-05-29T13:20:51.044Z,77.70
2018-05-29T13:23:18.785Z,77.30
2018-05-29T13:25:46.878Z,76.20
2018-05-29T13:28:14.676Z,75.40
2018-05-29T13:30:42.412Z,76.90
2018-05-29T13:33:10.152Z,76.50
2018-05-29T13:35:37.867Z,75.60
2018-05-29T13:38:05.628Z,75.90
2018-05-29T13:40:33.388Z,75.50
2018-05-29T13:43:01.162Z,75.10
2018-05-29T13:45:29.672Z,73.80
2018-05-29T13:47:57.407Z,73.80
2018-05-29T13:50:26.751Z,72.10
2018-05-29T13:52:54.535Z,72.10
2018-05-29T13:55:22.249Z,71.70
2018-05-29T13:57:50.757Z,70.60
2018-05-29T14:00:18.501Z,70.60
2018-05-29T14:02:47.012Z,69.60
2018-05-29T14:05:14.801Z,69.00
2018-05-29T14:07:42.563Z,69.20
2018-05-29T14:10:10.286Z,68.70
2018-05-29T14:12:38.040Z,68.40
2018-05-29T14:15:05.772Z,68.60
2018-05-29T14:17:33.500Z,67.70
2018-05-29T14:20:01.220Z,66.70
2018-05-29T14:22:29.692Z,66.90
2018-05-29T14:24:57.420Z,66.90
2018-05-29T14:27:25.157Z,67.20
2018-05-29T14:29:52.853Z,66.50
2018-05-29T14:32:20.584Z,67.60
2018-05-29T14:34:48.312Z,66.80
2018-05-29T14:37:16.802Z,67.00
2018-05-29T14:39:45.388Z,66.30
2018-05-29T14:42:13.081Z,66.30
2018-05-29T14:44:40.897Z,66.00
2018-05-29T14:47:09.364Z,66.00
2018-05-29T14:49:37.055Z,65.80
2018-05-29T14:52:05.624Z,66.00
2018-05-29T14:54:34.163Z,65.80
2018-05-29T14:57:01.926Z,65.80
2018-05-29T14:59:29.674Z,65.10
2018-05-29T15:01:57.629Z,64.70
2018-05-29T15:04:25.369Z,65.30
2018-05-29T15:06:54.008Z,64.50
2018-05-29T15:09:22.516Z,64.00
2018-05-29T15:11:50.265Z,64.00
2018-05-29T15:14:17.989Z,63.60
2018-05-29T15:16:45.737Z,64.10
2018-05-29T15:19:13.471Z,64.00
2018-05-29T15:21:41.192Z,64.20
2018-05-29T15:24:08.889Z,63.80
2018-05-29T15:26:36.645Z,64.00
2018-05-29T15:29:04.485Z,63.70
2018-05-29T15:31:32.201Z,63.50
2018-05-29T15:34:00.729Z,64.50
2018-05-29T15:36:28.460Z,64.50
2018-05-29T15:38:56.201Z,63.50
2018-05-29T15:41:23.964Z,63.80
2018-05-29T15:43:51.672Z,64.50
2018-05-29T15:46:19.388Z,63.20
2018-05-29T15:48:47.152Z,62.50
2018-05-29T15:51:14.929Z,61.90
2018-05-29T15:53:43.402Z,61.80
2018-05-29T15:56:11.916Z,60.70
2018-05-29T15:58:39.629Z,60.70
2018-05-29T16:01:07.324Z,60.10
2018-05-29T16:03:35.877Z,60.80
2018-05-29T16:06:04.058Z,60.80
2018-05-29T16:08:31.784Z,60.50
2018-05-29T16:10:59.568Z,59.60
2018-05-29T16:13:27.328Z,60.10
2018-05-29T16:15:55.109Z,59.30
2018-05-29T16:18:23.100Z,59.80
2018-05-29T16:20:51.623Z,58.70
2018-05-29T16:23:19.357Z,58.70
2018-05-29T16:25:47.820Z,58.50
2018-05-29T16:28:16.347Z,59.20
2018-05-29T16:30:44.106Z,59.10
2018-05-29T16:33:11.820Z,59.80
2018-05-29T16:35:39.563Z,58.50
2018-05-29T16:38:07.561Z,58.50
2018-05-29T16:40:35.433Z,59.10
2018-05-29T16:43:03.153Z,58.40
2018-05-29T16:45:30.843Z,58.50
2018-05-29T16:47:58.548Z,58.80
2018-05-29T16:50:26.292Z,59.20
2018-05-29T16:52:54.824Z,60.80
2018-05-29T16:55:22.536Z,60.00
2018-05-29T16:57:50.429Z,59.80
2018-05-29T17:00:18.145Z,59.40
2018-05-29T17:02:45.865Z,59.20
2018-05-29T17:05:13.613Z,59.00
2018-05-29T17:07:41.347Z,59.40
2018-05-29T17:10:09.821Z,58.80
2018-05-29T17:12:37.565Z,58.70
2018-05-29T17:15:05.987Z,59.00
2018-05-29T17:17:33.894Z,58.90
2018-05-29T17:20:01.637Z,59.40
2018-05-29T17:22:29.364Z,59.00
2018-05-29T17:24:57.843Z,59.70
2018-05-29T17:27:26.374Z,59.00
2018-05-29T17:29:54.146Z,58.90
2018-05-29T17:32:21.888Z,59.20
2018-05-29T17:34:49.637Z,59.60
2018-05-29T17:37:17.376Z,59.60
2018-05-29T17:39:45.869Z,59.90
2018-05-29T17:42:14.433Z,60.20
2018-05-29T17:44:42.756Z,60.10
2018-05-29T17:47:10.490Z,60.10
2018-05-29T17:49:38.996Z,59.90
2018-05-29T17:52:06.696Z,59.90
2018-05-29T17:54:34.392Z,59.90
2018-05-29T17:57:02.144Z,60.30
2018-05-29T17:59:29.858Z,60.10
2018-05-29T18:01:57.616Z,60.50
2018-05-29T18:04:25.376Z,59.80
2018-05-29T18:06:53.092Z,59.70
2018-05-29T18:09:20.878Z,59.40
2018-05-29T18:11:49.352Z,60.00
2018-05-29T18:14:17.847Z,59.60
2018-05-29T18:16:46.344Z,60.10
2018-05-29T18:19:14.044Z,60.10
2018-05-29T18:21:41.762Z,59.50
2018-05-29T18:24:09.458Z,59.70
2018-05-29T18:26:37.213Z,60.00
2018-05-29T18:29:04.996Z,60.10
2018-05-29T18:31:32.697Z,60.70
2018-05-29T18:34:01.215Z,61.70
2018-05-29T18:36:29.890Z,62.00
2018-05-29T18:38:59.731Z,62.10
2018-05-29T18:41:28.388Z,62.70
2018-05-29T18:43:56.128Z,62.70
2018-05-29T18:46:24.690Z,63.30
2018-05-29T18:48:52.696Z,63.20
2018-05-29T18:51:20.403Z,63.20
2018-05-29T18:53:48.130Z,63.40
2018-05-29T18:56:15.899Z,63.60
2018-05-29T18:58:43.657Z,63.70
2018-05-29T19:01:11.388Z,63.80
2018-05-29T19:03:39.150Z,64.40
2018-05-29T19:06:07.633Z,65.60
2018-05-29T19:08:36.165Z,65.70
2018-05-29T19:11:03.888Z,65.70
2018-05-29T19:13:32.381Z,65.50
2018-05-29T19:16:00.173Z,65.50
2018-05-29T19:18:27.904Z,65.10
2018-05-29T19:20:56.386Z,65.90
2018-05-29T19:23:24.181Z,66.00
2018-05-29T19:25:51.948Z,67.30
2018-05-29T19:28:19.741Z,67.10
2018-05-29T19:30:48.189Z,67.30
2018-05-29T19:33:15.926Z,67.40
2018-05-29T19:35:43.676Z,67.70
2018-05-29T19:38:12.180Z,68.00
2018-05-29T19:40:39.916Z,68.10
2018-05-29T19:43:08.392Z,68.40
2018-05-29T19:45:36.908Z,68.10
2018-05-29T19:48:04.662Z,68.20
2018-05-29T19:50:32.421Z,68.00
2018-05-29T19:53:00.157Z,67.90
2018-05-29T19:55:27.887Z,68.00
2018-05-29T19:57:55.693Z,68.30
2018-05-29T20:00:24.268Z,68.90
2018-05-29T20:02:51.972Z,68.80
2018-05-29T20:05:19.689Z,68.60
2018-05-29T20:07:47.468Z,68.40
2018-05-29T20:10:15.954Z,68.60
2018-05-29T20:12:44.465Z,68.90
2018-05-29T20:15:12.213Z,68.80
2018-05-29T20:17:40.704Z,69.30
2018-05-29T20:20:08.458Z,69.30
2018-05-29T20:22:36.279Z,69.40
2018-05-29T20:25:04.097Z,69.30
2018-05-29T20:27:35.688Z,69.30
2018-05-29T20:30:04.349Z,70.20
2018-05-29T20:32:32.387Z,69.40
2018-05-29T20:35:00.905Z,68.90
2018-05-29T20:37:28.636Z,68.90
2018-05-29T20:39:57.310Z,69.50
2018-05-29T20:42:25.820Z,69.20
2018-05-29T20:44:53.560Z,69.20
2018-05-29T20:47:22.181Z,69.60
2018-05-29T20:49:49.916Z,69.90
2018-05-29T20:52:17.627Z,70.00
2018-05-29T20:54:45.389Z,69.80
2018-05-29T20:57:13.148Z,69.80
2018-05-29T20:59:40.889Z,69.90
2018-05-29T21:02:08.632Z,69.80
2018-05-29T21:04:37.108Z,70.50
2018-05-29T21:07:05.628Z,71.00
2018-05-29T21:09:33.540Z,71.70
2018-05-29T21:12:01.311Z,71.80
2018-05-29T21:14:29.875Z,73.00
2018-05-29T21:16:57.993Z,72.90
2018-05-29T21:19:25.716Z,73.40
2018-05-29T21:21:54.311Z,73.60
2018-05-29T21:24:22.914Z,73.30
2018-05-29T21:26:50.754Z,73.30
2018-05-29T21:29:18.464Z,73.30
2018-05-29T21:31:46.176Z,73.40
2018-05-29T21:34:13.924Z,73.80
2018-05-29T21:36:41.612Z,74.20
2018-05-29T21:39:10.109Z,75.10
2018-05-29T21:41:38.569Z,75.60
2018-05-29T21:44:07.053Z,75.80
2018-05-29T21:46:34.910Z,75.70
2018-05-29T21:49:02.625Z,75.90
2018-05-29T21:51:30.460Z,76.50
2018-05-29T21:53:58.948Z,77.20
2018-05-29T21:56:26.667Z,77.20
2018-05-29T21:58:54.586Z,77.60
2018-05-29T22:01:22.316Z,77.90
2018-05-29T22:03:50.100Z,78.10
2018-05-29T22:06:18.620Z,78.50
2018-05-29T22:08:46.321Z,78.50
2018-05-29T22:11:14.277Z,78.60
2018-05-29T22:13:42.005Z,78.90
2018-05-29T22:16:09.712Z,78.80
2018-05-29T22:18:37.427Z,78.90
2018-05-29T22:21:05.191Z,79.20
2018-05-29T22:23:32.901Z,79.40
2018-05-29T22:26:00.634Z,79.50
2018-05-29T22:28:29.136Z,80.30
2018-05-29T22:30:56.833Z,80.00
2018-05-29T22:33:24.590Z,80.20
2018-05-29T22:35:53.088Z,80.40
2018-05-29T22:38:20.786Z,80.40
2018-05-29T22:40:48.498Z,80.60
2018-05-29T22:43:17.001Z,80.80
2018-05-29T22:45:44.696Z,80.80
2018-05-29T22:48:12.425Z,81.20
2018-05-29T22:50:40.148Z,81.60
2018-05-29T22:53:07.870Z,81.90
2018-05-29T22:55:35.608Z,82.20
2018-05-29T22:58:04.085Z,82.70
2018-05-29T23:00:32.563Z,83.10
2018-05-29T23:03:00.311Z,83.10
2018-05-29T23:05:28.041Z,83.10
2018-05-29T23:07:55.774Z,83.20
2018-05-29T23:10:23.550Z,83.40
2018-05-29T23:12:51.255Z,83.50
2018-05-29T23:15:19.067Z,83.50
2018-05-29T23:17:46.785Z,83.50
2018-05-29T23:20:14.545Z,83.50
2018-05-29T23:22:42.288Z,83.50
2018-05-29T23:25:10.033Z,83.40
2018-05-29T23:27:37.728Z,83.30
2018-05-29T23:30:05.455Z,83.20
2018-05-29T23:32:33.237Z,83.10
2018-05-29T23:35:00.926Z,83.20
2018-05-29T23:37:28.828Z,83.20
2018-05-29T23:39:56.553Z,83.30
2018-05-29T23:42:24.269Z,83.40
2018-05-29T23:44:52.003Z,83.70
2018-05-29T23:47:20.464Z,84.40
2018-05-29T23:49:48.173Z,84.30
2018-05-29T23:52:15.892Z,85.30
2018-05-29T23:54:43.672Z,84.80
2018-05-29T23:57:12.151Z,85.30
2018-05-29T23:59:40.655Z,85.50
